This is the latest recevied weather packets stored in our database for station/object WD9GET. If no packets are shown the sender has not sent any weather packets the latest 10 day(s).
| Time | Temp. | Humidity | Pressure | Rain* | Wind** | Luminosity | Snow |
|---|---|---|---|---|---|---|---|
| 1777645414 | 18.89° C | 98% | 1009.9 hPa | 0.25 mm | - | 52 W/m² | - |
| 1777645351 | 18.89° C | 98% | 1010 hPa | 0 mm | - | 47 W/m² | - |
| 1777645289 | 18.89° C | 98% | 1010.2 hPa | 0 mm | - | 41 W/m² | - |
| 1777645226 | 18.89° C | 98% | 1010.6 hPa | 0 mm | - | 31 W/m² | - |
| 1777645152 | 18.89° C | 98% | 1011.1 hPa | 0 mm | - | 17 W/m² | - |
| 1777645090 | 18.89° C | 98% | 1011.8 hPa | 0 mm | - | 8 W/m² | - |
| 1777645029 | 18.89° C | 98% | 1011.9 hPa | 0 mm | - | 7 W/m² | - |
| 1777644970 | 18.89° C | 98% | 1011.8 hPa | 0 mm | - | 7 W/m² | - |
| 1777644880 | 18.89° C | 98% | 1010.9 hPa | 0 mm | - | 23 W/m² | - |
| 1777644830 | 18.89° C | 98% | 1010.9 hPa | 0 mm | - | 23 W/m² | - |
| 1777644825 | 18.89° C | 98% | 1010.9 hPa | 0 mm | - | 23 W/m² | - |
| 1777644700 | 18.89° C | 98% | 1010.9 hPa | 0 mm | - | 23 W/m² | - |
| 1777644640 | 18.89° C | 98% | 1010.9 hPa | 0 mm | - | 23 W/m² | - |
| 1777644580 | 18.89° C | 98% | 1010.8 hPa | 0 mm | - | 26 W/m² | - |
| 1777644520 | 18.89° C | 98% | 1010.7 hPa | 0 mm | - | 27 W/m² | - |
| 1777644465 | 18.89° C | 98% | 1010.7 hPa | 0 mm | - | 27 W/m² | - |
| 1777644385 | 18.89° C | 98% | 1010.6 hPa | 0 mm | - | 33 W/m² | - |
| 1777644322 | 18.89° C | 98% | 1010.6 hPa | 0 mm | - | 33 W/m² | - |
| 1777644250 | 18.89° C | 98% | 1010.6 hPa | 0 mm | - | 33 W/m² | - |
| 1777644191 | 18.89° C | 98% | 1010.5 hPa | 0 mm | - | 41 W/m² | - |
| 1777644131 | 18.89° C | 98% | 1010.3 hPa | 0 mm | - | 50 W/m² | - |
| 1777644070 | 18.89° C | 98% | 1010.2 hPa | 0 mm | - | 47 W/m² | - |
| 1777644009 | 18.89° C | 98% | 1010.1 hPa | 0 mm | - | 46 W/m² | - |
| 1777643949 | 18.89° C | 98% | 1010.2 hPa | 0 mm | - | 38 W/m² | - |
| 1777643884 | 18.89° C | 98% | 1010.2 hPa | 0 mm | - | 38 W/m² | - |
* Rain latest hour (hover to see other rain measurements)
** Current wind speed in m/s (hover to see current wind gust speed)